Time;durP1;ratioP1;P1;durP2;ratioP2;P2;SDS_P1;SDS_P2;PMS_P1;PMS_P2;Temp;Humidity;BMP_temperature;BMP_pressure;BME280_temperature;BME280_humidity;BME280_pressure;Samples;Min_cycle;Max_cycle;Signal;HPM_P1;HPM_P2
2024/04/13 00:01:39;;;;;;;0.90;0.90;;;16.50;98.40;;;;;;5516234;25;20834;-76
2024/04/13 00:04:07;;;;;;;0.40;0.30;;;16.50;98.20;;;;;;5514796;26;20733;-76
2024/04/13 00:06:32;;;;;;;0.40;0.40;;;16.50;98.10;;;;;;5515951;25;20291;-76
2024/04/13 00:08:58;;;;;;;0.30;0.30;;;16.50;98.10;;;;;;5514775;26;20468;-76
2024/04/13 00:11:24;;;;;;;0.30;0.20;;;16.50;98.10;;;;;;5514740;26;20239;-77
2024/04/13 00:13:51;;;;;;;0.30;0.20;;;16.50;98.00;;;;;;5516402;25;20248;-76
2024/04/13 00:16:17;;;;;;;0.70;0.50;;;16.50;97.80;;;;;;5514144;25;20323;-76
2024/04/13 00:18:43;;;;;;;0.40;0.30;;;16.40;97.80;;;;;;5514378;26;20516;-76
2024/04/13 00:21:08;;;;;;;0.40;0.40;;;16.50;97.70;;;;;;5514451;26;20464;-76
2024/04/13 00:23:34;;;;;;;0.30;0.20;;;16.40;97.50;;;;;;5516357;25;20902;-76
2024/04/13 00:26:00;;;;;;;0.30;0.20;;;16.50;97.50;;;;;;5516013;25;20232;-76
2024/04/13 00:28:27;;;;;;;0.67;0.67;;;16.50;97.40;;;;;;5515735;25;20307;-76
2024/04/13 00:30:53;;;;;;;0.63;0.63;;;16.50;97.40;;;;;;5516173;25;20500;-76
2024/04/13 00:33:19;;;;;;;1.10;1.10;;;16.50;97.70;;;;;;5514055;26;20570;-76
2024/04/13 00:35:45;;;;;;;0.30;0.20;;;16.50;97.60;;;;;;5514169;26;20499;-76
2024/04/13 00:38:11;;;;;;;0.67;0.67;;;16.50;97.70;;;;;;5515874;25;20304;-76
2024/04/13 00:40:37;;;;;;;1.90;1.63;;;16.50;97.70;;;;;;5513852;26;20632;-76
2024/04/13 00:43:10;;;;;;;0.50;0.50;;;16.50;97.60;;;;;;5516085;25;20821;-76
2024/04/13 00:45:45;;;;;;;0.40;0.37;;;16.40;97.60;;;;;;5515034;25;20774;-76
2024/04/13 00:48:13;;;;;;;0.50;0.50;;;16.40;97.70;;;;;;5513860;26;20984;-76
2024/04/13 00:50:42;;;;;;;0.70;0.50;;;16.30;97.70;;;;;;5513975;26;20495;-77
2024/04/13 00:53:11;;;;;;;0.40;0.40;;;16.20;97.70;;;;;;5515985;25;20501;-76
2024/04/13 00:55:40;;;;;;;0.47;0.47;;;16.20;97.80;;;;;;5513662;26;20425;-76
2024/04/13 00:58:06;;;;;;;0.50;0.50;;;16.10;97.80;;;;;;5515784;25;20449;-76
2024/04/13 01:00:35;;;;;;;4.83;1.53;;;16.10;98.10;;;;;;5515867;25;20483;-76
2024/04/13 01:03:03;;;;;;;0.50;0.50;;;16.00;97.80;;;;;;5515959;25;20448;-76
2024/04/13 01:05:30;;;;;;;0.30;0.20;;;15.90;97.90;;;;;;5514415;26;20456;-76
2024/04/13 01:07:55;;;;;;;0.30;0.30;;;15.90;98.00;;;;;;5514013;26;20457;-76
2024/04/13 01:10:22;;;;;;;0.70;0.70;;;15.90;98.10;;;;;;5516347;25;20522;-76
2024/04/13 01:12:51;;;;;;;0.40;0.20;;;15.80;98.20;;;;;;5515361;25;20279;-76
2024/04/13 01:15:17;;;;;;;0.30;0.20;;;15.70;98.30;;;;;;5513667;26;20585;-76
2024/04/13 01:17:43;;;;;;;1.40;0.80;;;15.70;98.30;;;;;;5513247;26;20472;-76
2024/04/13 01:20:10;;;;;;;0.30;0.20;;;15.70;98.30;;;;;;5515578;26;20886;-76
2024/04/13 01:22:45;;;;;;;1.07;1.07;;;15.70;98.20;;;;;;5514822;26;20448;-75
2024/04/13 01:25:23;;;;;;;0.30;0.20;;;15.60;98.10;;;;;;5515509;25;20427;-76
2024/04/13 01:27:49;;;;;;;0.57;0.50;;;15.60;98.10;;;;;;5514511;25;20494;-75
2024/04/13 01:30:17;;;;;;;0.80;0.80;;;15.50;98.10;;;;;;5513852;26;20437;-76
2024/04/13 01:32:44;;;;;;;0.60;0.40;;;15.60;98.20;;;;;;5513157;26;20969;-76
2024/04/13 01:35:13;;;;;;;0.30;0.20;;;15.60;98.20;;;;;;5513462;26;21185;-76
2024/04/13 01:37:42;;;;;;;1.80;0.80;;;15.60;98.20;;;;;;5515153;25;20452;-76
2024/04/13 01:40:09;;;;;;;0.30;0.30;;;15.70;98.10;;;;;;5514931;25;20432;-76
2024/04/13 01:42:36;;;;;;;0.30;0.20;;;15.60;98.10;;;;;;5514527;25;20460;-76
2024/04/13 01:45:02;;;;;;;0.30;0.30;;;15.70;98.10;;;;;;5514834;25;20437;-76
2024/04/13 01:47:28;;;;;;;0.97;0.80;;;15.60;98.10;;;;;;5512791;26;20843;-77
2024/04/13 01:49:54;;;;;;;0.30;0.20;;;15.60;98.20;;;;;;5515136;25;20901;-76
2024/04/13 01:52:22;;;;;;;0.47;0.47;;;15.50;98.20;;;;;;5514588;25;20460;-77
2024/04/13 01:54:48;;;;;;;0.30;0.20;;;15.40;98.60;;;;;;5515494;26;20448;-76
2024/04/13 01:57:14;;;;;;;0.47;0.43;;;15.50;98.50;;;;;;5514427;25;20504;-76
2024/04/13 01:59:41;;;;;;;0.40;0.40;;;15.40;98.30;;;;;;5512851;26;20441;-76
2024/04/13 02:02:07;;;;;;;1.07;0.83;;;15.50;98.20;;;;;;5514505;25;20508;-76
2024/04/13 02:04:32;;;;;;;1.03;0.93;;;15.50;98.20;;;;;;5513270;26;20448;-76
2024/04/13 02:06:58;;;;;;;0.60;0.60;;;15.40;98.20;;;;;;5513726;25;20557;-76
2024/04/13 02:09:24;;;;;;;0.80;0.80;;;15.40;98.30;;;;;;5514760;25;20274;-76
2024/04/13 02:11:49;;;;;;;1.77;1.70;;;15.40;98.30;;;;;;5514390;26;20688;-76
2024/04/13 02:14:15;;;;;;;0.73;0.73;;;15.40;98.40;;;;;;5514074;26;20335;-76
2024/04/13 02:16:41;;;;;;;1.50;0.70;;;15.40;98.40;;;;;;5514756;25;20312;-76
2024/04/13 02:19:06;;;;;;;1.67;1.57;;;15.40;98.40;;;;;;5514495;25;20267;-76
2024/04/13 02:21:32;;;;;;;0.30;0.20;;;15.30;98.30;;;;;;5514426;25;20791;-76
2024/04/13 02:23:58;;;;;;;0.63;0.60;;;15.30;98.60;;;;;;5514918;25;20232;-76
2024/04/13 02:26:24;;;;;;;0.30;0.30;;;15.30;98.40;;;;;;5513017;26;20282;-76
2024/04/13 02:28:49;;;;;;;0.30;0.20;;;15.30;98.30;;;;;;5513060;26;20518;-76
2024/04/13 02:31:17;;;;;;;0.80;0.60;;;15.20;98.40;;;;;;5514543;25;20266;-76
2024/04/13 02:33:42;;;;;;;0.60;0.60;;;15.20;98.60;;;;;;5513313;26;20243;-76
2024/04/13 02:36:08;;;;;;;0.30;0.20;;;15.20;98.70;;;;;;5512196;26;20492;-76
2024/04/13 02:38:34;;;;;;;1.70;1.40;;;15.10;98.60;;;;;;5512794;26;20456;-76
2024/04/13 02:41:01;;;;;;;0.30;0.20;;;15.10;98.60;;;;;;5506150;26;20454;-76
2024/04/13 02:43:30;;;;;;;0.67;0.67;;;15.10;98.50;;;;;;5475705;26;20321;-76
2024/04/13 02:46:08;;;;;;;0.97;0.97;;;15.10;98.40;;;;;;5484053;26;20464;-76
2024/04/13 02:48:42;;;;;;;5.70;1.37;;;15.10;98.60;;;;;;5512112;26;20468;-76
2024/04/13 02:51:14;;;;;;;3.30;1.90;;;15.10;98.50;;;;;;5513878;25;20539;-76
2024/04/13 02:53:39;;;;;;;0.60;0.60;;;15.10;98.60;;;;;;5512334;26;20583;-76
2024/04/13 02:56:06;;;;;;;0.30;0.20;;;15.10;98.60;;;;;;5513897;25;20460;-76
2024/04/13 02:58:32;;;;;;;0.30;0.20;;;15.10;98.50;;;;;;5514035;26;20327;-76
2024/04/13 03:00:59;;;;;;;0.30;0.30;;;15.00;98.50;;;;;;5512094;26;21049;-76
2024/04/13 03:03:28;;;;;;;0.30;0.20;;;15.00;98.50;;;;;;5512718;26;20532;-76
2024/04/13 03:06:04;;;;;;;0.60;0.60;;;15.10;98.50;;;;;;5511871;26;20475;-76
2024/04/13 03:08:31;;;;;;;1.13;1.03;;;15.10;98.50;;;;;;5511765;26;20456;-76
2024/04/13 03:10:57;;;;;;;1.00;0.47;;;15.10;98.60;;;;;;5511607;26;20537;-76
2024/04/13 03:13:23;;;;;;;0.40;0.30;;;15.10;98.60;;;;;;5513449;25;20505;-76
2024/04/13 03:16:09;;;;;;;0.30;0.20;;;15.10;98.80;;;;;;5513180;25;20496;-76
2024/04/13 03:18:39;;;;;;;0.30;0.20;;;15.10;98.80;;;;;;5510555;26;21045;-76
2024/04/13 03:21:08;;;;;;;0.30;0.20;;;15.00;98.70;;;;;;5513384;25;20508;-76
2024/04/13 03:23:36;;;;;;;2.10;1.23;;;14.90;98.70;;;;;;5512047;26;20461;-76
2024/04/13 03:26:02;;;;;;;0.30;0.30;;;14.90;98.70;;;;;;5505432;26;20462;-76
2024/04/13 03:28:29;;;;;;;0.50;0.40;;;14.90;98.70;;;;;;5476350;26;20461;-76
2024/04/13 03:30:55;;;;;;;0.33;0.30;;;14.70;98.70;;;;;;5479745;26;20452;-76
2024/04/13 03:33:24;;;;;;;0.73;0.73;;;14.70;98.90;;;;;;5511559;26;20547;-76
2024/04/13 03:35:50;;;;;;;0.87;0.87;;;14.70;99.00;;;;;;5512964;25;20216;-76
2024/04/13 03:38:16;;;;;;;0.63;0.50;;;14.60;99.10;;;;;;5513239;25;20501;-76
2024/04/13 03:40:42;;;;;;;0.30;0.30;;;14.60;99.10;;;;;;5512741;25;20262;-75
2024/04/13 03:43:07;;;;;;;0.40;0.33;;;14.60;99.10;;;;;;5513031;26;20231;-77
2024/04/13 03:45:34;;;;;;;0.30;0.20;;;14.60;99.20;;;;;;5513200;25;20267;-76
2024/04/13 03:48:00;;;;;;;0.40;0.20;;;14.60;99.10;;;;;;5512806;25;20274;-76
2024/04/13 03:50:25;;;;;;;0.50;0.50;;;14.60;99.10;;;;;;5513016;25;21094;-76
2024/04/13 03:52:51;;;;;;;0.40;0.20;;;14.60;99.10;;;;;;5512611;25;20574;-76
2024/04/13 03:55:17;;;;;;;0.30;0.20;;;14.50;99.10;;;;;;5513134;25;20442;-76
2024/04/13 03:57:43;;;;;;;0.30;0.20;;;14.50;99.20;;;;;;5512355;26;20460;-76
2024/04/13 04:00:09;;;;;;;0.40;0.40;;;14.50;99.30;;;;;;5512979;25;20215;-77
2024/04/13 04:02:35;;;;;;;0.30;0.30;;;14.50;99.30;;;;;;5504704;26;20687;-76
2024/04/13 04:05:04;;;;;;;0.30;0.30;;;14.60;99.30;;;;;;5476820;26;20484;-76
2024/04/13 04:07:34;;;;;;;0.30;0.30;;;14.60;99.30;;;;;;5504892;26;20577;-76
2024/04/13 04:10:00;;;;;;;0.30;0.20;;;14.70;99.30;;;;;;5513260;25;20433;-76
2024/04/13 04:12:26;;;;;;;0.30;0.20;;;14.70;99.40;;;;;;5511829;25;20472;-76
2024/04/13 04:14:51;;;;;;;0.93;0.93;;;14.70;99.40;;;;;;5512989;26;20784;-76
2024/04/13 04:17:17;;;;;;;5.77;1.10;;;14.70;99.40;;;;;;5512156;25;20441;-76
2024/04/13 04:19:43;;;;;;;0.40;0.40;;;14.70;99.50;;;;;;5513308;25;20220;-76
2024/04/13 04:22:10;;;;;;;0.30;0.20;;;14.70;99.40;;;;;;5504989;26;20638;-76
2024/04/13 04:24:37;;;;;;;0.40;0.30;;;14.70;99.40;;;;;;5474542;26;20937;-76
2024/04/13 04:27:05;;;;;;;0.47;0.47;;;14.70;99.60;;;;;;5498291;26;20499;-76
2024/04/13 04:29:34;;;;;;;0.77;0.70;;;14.70;99.60;;;;;;5512432;26;20685;-76
2024/04/13 04:32:00;;;;;;;0.33;0.33;;;14.70;99.50;;;;;;5514544;26;20460;-76
2024/04/13 04:34:26;;;;;;;0.30;0.20;;;14.70;99.50;;;;;;5516512;25;20500;-76
2024/04/13 04:36:51;;;;;;;2.00;1.90;;;14.70;99.60;;;;;;5514427;26;20570;-76
2024/04/13 04:39:17;;;;;;;0.30;0.30;;;14.70;99.60;;;;;;5516198;25;20231;-76
2024/04/13 04:41:43;;;;;;;1.13;1.13;;;14.70;99.60;;;;;;5507976;26;20249;-76
2024/04/13 04:44:10;;;;;;;0.60;0.60;;;14.70;99.70;;;;;;5479764;26;20974;-76
2024/04/13 04:46:35;;;;;;;0.70;0.70;;;14.70;99.80;;;;;;5494759;26;20453;-76
2024/04/13 04:49:04;;;;;;;0.30;0.20;;;14.70;99.80;;;;;;5514287;26;20573;-76
2024/04/13 04:51:30;;;;;;;0.30;0.30;;;14.80;99.90;;;;;;5514089;26;20468;-76
2024/04/13 04:53:56;;;;;;;1.47;0.63;;;14.80;99.90;;;;;;5514708;26;20868;-76
2024/04/13 04:56:21;;;;;;;1.07;0.67;;;14.80;99.90;;;;;;5515385;26;20512;-76
2024/04/13 04:58:47;;;;;;;0.30;0.30;;;14.90;99.90;;;;;;5514626;26;21043;-76
2024/04/13 05:01:12;;;;;;;0.90;0.53;;;14.90;99.90;;;;;;5515924;25;20228;-76
2024/04/13 05:03:38;;;;;;;0.40;0.40;;;15.00;99.90;;;;;;5515773;25;20236;-76
2024/04/13 05:06:05;;;;;;;0.43;0.43;;;15.00;99.90;;;;;;5515538;25;20757;-76
2024/04/13 05:08:30;;;;;;;0.40;0.40;;;15.00;99.90;;;;;;5515536;25;20240;-76
2024/04/13 05:10:57;;;;;;;0.73;0.70;;;15.10;99.90;;;;;;5513520;25;20510;-76
2024/04/13 05:13:23;;;;;;;1.37;1.27;;;15.20;99.90;;;;;;5513468;26;20239;-77
2024/04/13 05:15:49;;;;;;;0.40;0.30;;;15.20;99.90;;;;;;5513863;26;20891;-76
2024/04/13 05:18:15;;;;;;;2.50;2.30;;;15.30;99.90;;;;;;5515456;25;20239;-76
2024/04/13 05:20:40;;;;;;;0.30;0.20;;;15.30;99.90;;;;;;5513706;26;20488;-76
2024/04/13 05:23:07;;;;;;;0.30;0.20;;;15.40;99.90;;;;;;5515661;25;20911;-76
2024/04/13 05:25:33;;;;;;;0.97;0.80;;;15.40;99.90;;;;;;5515655;25;20661;-76
2024/04/13 05:27:59;;;;;;;0.63;0.60;;;15.50;99.90;;;;;;5514959;25;20457;-76
2024/04/13 05:30:25;;;;;;;0.30;0.20;;;15.60;99.90;;;;;;5513474;26;20480;-76
2024/04/13 05:32:52;;;;;;;0.50;0.50;;;15.60;99.90;;;;;;5515376;25;20231;-76
2024/04/13 05:35:18;;;;;;;0.50;0.43;;;15.70;99.90;;;;;;5513420;26;20436;-76
2024/04/13 05:37:44;;;;;;;0.57;0.57;;;15.70;99.90;;;;;;5512581;26;20891;-76
2024/04/13 05:40:12;;;;;;;0.77;0.67;;;15.80;99.90;;;;;;5515174;25;20881;-76
2024/04/13 05:42:38;;;;;;;1.03;1.03;;;15.90;99.90;;;;;;5514038;26;20680;-76
2024/04/13 05:45:04;;;;;;;2.30;1.10;;;15.90;99.90;;;;;;5513293;26;20549;-76
2024/04/13 05:47:30;;;;;;;0.70;0.70;;;16.00;99.90;;;;;;5514556;26;20457;-76
2024/04/13 05:49:55;;;;;;;0.40;0.20;;;16.10;99.90;;;;;;5515227;25;20227;-76
2024/04/13 05:52:21;;;;;;;0.40;0.40;;;16.20;99.90;;;;;;5514382;25;20574;-76
2024/04/13 05:54:47;;;;;;;0.30;0.20;;;16.30;99.90;;;;;;5513626;26;20232;-76
2024/04/13 05:57:13;;;;;;;0.67;0.67;;;16.40;99.90;;;;;;5506632;26;20664;-76
2024/04/13 05:59:38;;;;;;;0.60;0.60;;;16.50;99.90;;;;;;5515308;25;20224;-76
2024/04/13 06:02:04;;;;;;;0.30;0.20;;;16.60;99.90;;;;;;5514147;26;20440;-76
2024/04/13 06:04:30;;;;;;;1.50;1.40;;;16.70;99.90;;;;;;5511979;26;20985;-76
2024/04/13 06:06:56;;;;;;;0.30;0.20;;;16.70;99.90;;;;;;5514739;26;20444;-76
2024/04/13 06:09:22;;;;;;;0.60;0.40;;;16.90;99.90;;;;;;5514493;25;20828;-76
2024/04/13 06:11:48;;;;;;;0.73;0.73;;;17.00;99.90;;;;;;5513724;25;20697;-76
2024/04/13 06:14:13;;;;;;;0.30;0.20;;;17.10;99.90;;;;;;5512375;25;20460;-76
2024/04/13 06:16:40;;;;;;;0.30;0.27;;;17.20;99.90;;;;;;5494945;25;20398;-76
2024/04/13 06:19:06;;;;;;;0.40;0.30;;;17.30;99.80;;;;;;5475060;26;20560;-76
2024/04/13 06:21:32;;;;;;;0.30;0.30;;;17.40;99.70;;;;;;5474517;26;20494;-76
2024/04/13 06:23:57;;;;;;;1.23;1.13;;;17.50;99.60;;;;;;5474733;26;20930;-76
2024/04/13 06:26:23;;;;;;;0.83;0.77;;;17.60;99.40;;;;;;5478829;26;20229;-76
2024/04/13 06:28:52;;;;;;;0.40;0.30;;;17.70;99.20;;;;;;5473995;26;20237;-77
2024/04/13 06:31:19;;;;;;;0.77;0.77;;;17.80;99.50;;;;;;5487083;26;20629;-76
2024/04/13 06:33:45;;;;;;;0.30;0.20;;;17.90;99.30;;;;;;5514574;25;20834;-76
2024/04/13 06:36:11;;;;;;;0.57;0.57;;;18.00;99.30;;;;;;5512124;26;20582;-76
2024/04/13 06:38:38;;;;;;;2.73;1.77;;;18.10;99.10;;;;;;5503787;26;20246;-76
2024/04/13 06:41:04;;;;;;;0.30;0.20;;;18.20;98.90;;;;;;5496170;26;20443;-76
2024/04/13 06:43:30;;;;;;;0.63;0.63;;;18.30;98.80;;;;;;5510681;25;20500;-76
2024/04/13 06:45:56;;;;;;;0.30;0.20;;;18.40;98.50;;;;;;5510904;26;20443;-77
2024/04/13 06:48:22;;;;;;;4.83;1.70;;;18.50;98.50;;;;;;5487055;25;20864;-76
2024/04/13 06:50:47;;;;;;;1.03;0.97;;;18.60;98.40;;;;;;5475548;26;20530;-76
2024/04/13 06:53:13;;;;;;;0.40;0.20;;;18.70;98.40;;;;;;5509057;26;20323;-76
2024/04/13 06:55:39;;;;;;;0.30;0.20;;;18.80;98.30;;;;;;5508043;26;20214;-76
2024/04/13 06:58:04;;;;;;;1.30;1.20;;;18.90;98.10;;;;;;5476557;26;20352;-76
2024/04/13 07:00:30;;;;;;;0.40;0.40;;;19.00;98.10;;;;;;5477096;26;20272;-76
2024/04/13 07:02:55;;;;;;;0.33;0.30;;;19.10;98.10;;;;;;5493677;26;20238;-76
2024/04/13 07:05:21;;;;;;;0.57;0.57;;;19.20;98.10;;;;;;5477002;26;20228;-76
2024/04/13 07:07:47;;;;;;;0.70;0.70;;;19.30;98.10;;;;;;5491740;26;20295;-76
2024/04/13 07:10:12;;;;;;;3.23;1.93;;;19.40;97.90;;;;;;5475565;26;20745;-77
2024/04/13 07:12:39;;;;;;;1.33;1.23;;;19.50;97.80;;;;;;5505973;26;21141;-76
2024/04/13 07:15:05;;;;;;;0.73;0.70;;;19.70;97.80;;;;;;5512530;25;20348;-77
2024/04/13 07:17:31;;;;;;;0.40;0.40;;;19.80;97.60;;;;;;5511000;26;20827;-76
2024/04/13 07:19:58;;;;;;;0.57;0.57;;;19.90;97.50;;;;;;5513533;26;20612;-77
2024/04/13 07:22:23;;;;;;;0.83;0.80;;;20.00;97.40;;;;;;5513136;25;20553;-76
2024/04/13 07:24:49;;;;;;;0.50;0.50;;;20.10;97.40;;;;;;5513959;25;20456;-77
2024/04/13 07:27:14;;;;;;;1.33;1.33;;;20.20;97.30;;;;;;5482140;25;20266;-77
2024/04/13 07:29:40;;;;;;;0.87;0.50;;;20.20;97.30;;;;;;5490942;26;20250;-76
2024/04/13 07:32:06;;;;;;;0.30;0.20;;;20.40;97.30;;;;;;5490554;26;20750;-76
2024/04/13 07:34:31;;;;;;;0.37;0.20;;;20.40;97.20;;;;;;5479034;26;20266;-76
2024/04/13 07:36:57;;;;;;;1.70;0.90;;;20.60;96.90;;;;;;5510606;26;20231;-76
2024/04/13 07:39:23;;;;;;;1.03;0.73;;;20.70;96.90;;;;;;5511800;25;20303;-76
2024/04/13 07:41:48;;;;;;;1.63;1.63;;;20.80;96.80;;;;;;5512714;25;20704;-77
2024/04/13 07:44:14;;;;;;;3.03;2.10;;;20.90;96.90;;;;;;5508984;25;20236;-77
2024/04/13 07:46:39;;;;;;;0.60;0.40;;;21.00;96.80;;;;;;5509995;25;20236;-76
2024/04/13 07:49:05;;;;;;;0.30;0.20;;;21.10;96.50;;;;;;5509785;26;20235;-76
2024/04/13 07:51:31;;;;;;;0.50;0.40;;;21.10;96.60;;;;;;5509619;25;20224;-76
2024/04/13 07:53:56;;;;;;;0.30;0.30;;;21.20;96.50;;;;;;5507091;26;20247;-77
2024/04/13 07:56:22;;;;;;;0.30;0.20;;;21.30;96.60;;;;;;5501079;26;20740;-76
2024/04/13 07:58:47;;;;;;;0.30;0.20;;;21.40;96.40;;;;;;5475382;26;20233;-77
2024/04/13 08:01:13;;;;;;;3.47;0.67;;;21.50;96.00;;;;;;5483694;26;20467;-76
2024/04/13 08:03:39;;;;;;;0.30;0.27;;;21.60;96.00;;;;;;5509714;26;20247;-77
2024/04/13 08:06:05;;;;;;;0.67;0.67;;;21.80;96.00;;;;;;5514207;25;20257;-77
2024/04/13 08:08:30;;;;;;;0.30;0.20;;;21.90;95.70;;;;;;5514865;25;20302;-76
2024/04/13 08:10:56;;;;;;;0.40;0.30;;;22.00;95.60;;;;;;5488178;26;20669;-76
2024/04/13 08:13:21;;;;;;;1.23;0.70;;;22.10;95.60;;;;;;5500047;26;20271;-77
2024/04/13 08:15:47;;;;;;;0.40;0.33;;;22.20;95.60;;;;;;5482425;26;20858;-77
2024/04/13 08:18:14;;;;;;;0.30;0.20;;;22.30;95.30;;;;;;5479616;25;20245;-77
2024/04/13 08:20:39;;;;;;;0.30;0.20;;;22.40;95.30;;;;;;5480254;26;20765;-77
2024/04/13 08:23:05;;;;;;;0.40;0.40;;;22.60;94.90;;;;;;5516239;25;20468;-76
2024/04/13 08:25:32;;;;;;;0.30;0.30;;;22.70;94.80;;;;;;5491987;26;20298;-77
2024/04/13 08:27:58;;;;;;;0.40;0.30;;;22.80;95.10;;;;;;5480246;26;20647;-77
2024/04/13 08:30:23;;;;;;;1.37;1.00;;;22.90;94.80;;;;;;5475197;26;20880;-77
2024/04/13 08:32:49;;;;;;;0.30;0.20;;;23.00;94.40;;;;;;5505331;26;20638;-76
2024/04/13 08:35:15;;;;;;;0.30;0.30;;;23.10;94.10;;;;;;5512319;25;20272;-77
2024/04/13 08:37:41;;;;;;;0.50;0.37;;;23.20;93.90;;;;;;5511429;25;20227;-77
2024/04/13 08:40:13;;;;;;;0.30;0.20;;;23.30;94.40;;;;;;5510360;26;20493;-77
2024/04/13 08:42:40;;;;;;;0.30;0.30;;;23.40;93.70;;;;;;5497276;26;20444;-77
2024/04/13 08:45:10;;;;;;;1.80;0.83;;;23.50;93.80;;;;;;5486690;26;20462;-77
2024/04/13 08:47:40;;;;;;;0.97;0.40;;;23.70;93.80;;;;;;5509696;26;20454;-77
2024/04/13 08:50:07;;;;;;;0.30;0.20;;;23.90;93.50;;;;;;5483315;25;20455;-77
2024/04/13 08:52:33;;;;;;;1.13;1.13;;;24.20;93.10;;;;;;5487309;26;20462;-77
2024/04/13 08:54:59;;;;;;;1.80;1.17;;;24.60;92.60;;;;;;5475953;26;20493;-77
2024/04/13 08:57:29;;;;;;;0.30;0.20;;;24.90;91.90;;;;;;5504422;26;20239;-77
2024/04/13 09:00:03;;;;;;;0.40;0.40;;;25.00;91.80;;;;;;5513595;26;20543;-77
2024/04/13 09:02:35;;;;;;;0.30;0.30;;;24.90;91.70;;;;;;5495564;25;20549;-77
2024/04/13 09:05:04;;;;;;;0.50;0.40;;;24.90;91.70;;;;;;5485037;26;20684;-77
2024/04/13 09:07:34;;;;;;;0.97;0.60;;;24.90;91.80;;;;;;5505477;26;20468;-77
2024/04/13 09:10:00;;;;;;;0.30;0.20;;;24.90;91.90;;;;;;5515034;26;20444;-77
2024/04/13 09:12:26;;;;;;;0.40;0.30;;;24.80;92.30;;;;;;5512882;26;21008;-77
2024/04/13 09:14:53;;;;;;;0.37;0.30;;;24.90;92.00;;;;;;5500918;26;20598;-77
2024/04/13 09:17:19;;;;;;;0.37;0.37;;;24.90;91.70;;;;;;5501368;26;20274;-76
2024/04/13 09:19:45;;;;;;;0.47;0.47;;;24.90;91.60;;;;;;5498889;25;20498;-77
2024/04/13 09:22:12;;;;;;;0.30;0.30;;;24.90;91.50;;;;;;5513268;25;20821;-77
2024/04/13 09:24:44;;;;;;;0.40;0.40;;;24.90;91.60;;;;;;5479670;26;20473;-77
2024/04/13 09:27:28;;;;;;;0.63;0.63;;;25.10;91.60;;;;;;5478033;26;20820;-77
2024/04/13 09:30:13;;;;;;;0.97;0.63;;;25.10;91.40;;;;;;5514743;26;21045;-77
2024/04/13 09:32:38;;;;;;;3.60;1.07;;;25.10;91.20;;;;;;5506920;26;20909;-77
2024/04/13 09:35:13;;;;;;;0.97;0.97;;;25.10;91.20;;;;;;5478488;26;20831;-77
2024/04/13 09:37:39;;;;;;;0.30;0.20;;;25.10;91.20;;;;;;5503647;26;20235;-77
2024/04/13 09:40:06;;;;;;;0.30;0.20;;;25.10;91.20;;;;;;5508567;26;21326;-77
2024/04/13 09:42:33;;;;;;;0.67;0.67;;;25.20;91.00;;;;;;5498978;25;20868;-77
2024/04/13 09:45:11;;;;;;;0.40;0.40;;;25.20;91.00;;;;;;5490689;25;20579;-77
2024/04/13 09:47:38;;;;;;;0.57;0.57;;;25.20;90.70;;;;;;5488982;25;20868;-77
2024/04/13 09:50:04;;;;;;;0.30;0.30;;;25.20;90.90;;;;;;5502536;26;20498;-77
2024/04/13 09:52:34;;;;;;;0.60;0.60;;;25.30;91.00;;;;;;5501502;26;20809;-77
2024/04/13 09:55:00;;;;;;;0.50;0.50;;;25.40;91.00;;;;;;5474319;26;20455;-76
2024/04/13 09:57:26;;;;;;;0.60;0.40;;;25.30;90.50;;;;;;5493655;26;20462;-77
2024/04/13 09:59:53;;;;;;;0.30;0.20;;;25.30;90.70;;;;;;5473976;26;20505;-77
2024/04/13 10:02:19;;;;;;;0.83;0.83;;;25.40;90.70;;;;;;5501204;26;20274;-77
2024/04/13 10:04:45;;;;;;;0.40;0.40;;;25.50;90.80;;;;;;5483936;25;20485;-77
2024/04/13 10:07:12;;;;;;;0.50;0.50;;;25.50;90.80;;;;;;5489651;26;21100;-77
2024/04/13 10:09:40;;;;;;;0.30;0.20;;;25.60;90.80;;;;;;5496884;26;20573;-77
2024/04/13 10:12:12;;;;;;;0.40;0.33;;;25.50;90.70;;;;;;5498061;26;20492;-77
2024/04/13 10:14:41;;;;;;;1.63;1.10;;;25.50;90.20;;;;;;5501577;26;20738;-77
2024/04/13 10:17:09;;;;;;;0.30;0.27;;;25.50;90.20;;;;;;5506027;26;20569;-77
2024/04/13 10:19:35;;;;;;;0.73;0.67;;;25.50;90.10;;;;;;5495260;25;20460;-76
2024/04/13 10:22:04;;;;;;;0.40;0.30;;;25.50;90.00;;;;;;5496024;25;20441;-77
2024/04/13 10:24:31;;;;;;;0.77;0.60;;;25.60;90.00;;;;;;5478533;26;20458;-77
2024/04/13 10:27:10;;;;;;;0.30;0.20;;;25.70;89.80;;;;;;5495049;26;20538;-76
2024/04/13 10:29:42;;;;;;;0.30;0.20;;;25.70;89.60;;;;;;5512959;26;20437;-77
2024/04/13 10:32:17;;;;;;;0.80;0.80;;;25.80;89.60;;;;;;5511248;26;21020;-77
2024/04/13 10:34:43;;;;;;;0.50;0.50;;;25.80;89.50;;;;;;5512542;26;20540;-77
2024/04/13 10:37:32;;;;;;;0.40;0.30;;;25.80;88.80;;;;;;5512268;26;20548;-77
2024/04/13 10:40:00;;;;;;;0.67;0.67;;;25.80;88.90;;;;;;5488647;26;20885;-77
2024/04/13 10:42:39;;;;;;;1.07;0.50;;;25.80;89.10;;;;;;5495623;26;20446;-77
2024/04/13 10:45:18;;;;;;;0.30;0.20;;;25.80;88.90;;;;;;5474195;26;20560;-77
2024/04/13 10:47:45;;;;;;;0.30;0.20;;;25.70;89.10;;;;;;5504242;26;20520;-77
2024/04/13 10:50:15;;;;;;;1.37;1.27;;;25.80;88.80;;;;;;5505355;25;20453;-76
2024/04/13 10:52:42;;;;;;;0.30;0.20;;;25.80;89.00;;;;;;5506125;26;20461;-77
2024/04/13 10:55:12;;;;;;;0.63;0.63;;;25.80;88.90;;;;;;5511149;26;20437;-76
2024/04/13 10:57:41;;;;;;;0.53;0.53;;;25.70;88.80;;;;;;5496833;25;20514;-77
2024/04/13 11:00:08;;;;;;;0.40;0.40;;;25.70;88.70;;;;;;5479330;26;20457;-77
2024/04/13 11:02:37;;;;;;;0.30;0.30;;;25.70;88.20;;;;;;5491420;26;20457;-77
2024/04/13 11:05:04;;;;;;;0.50;0.40;;;25.80;88.00;;;;;;5473309;26;20426;-77
2024/04/13 11:07:30;;;;;;;0.30;0.20;;;25.90;87.90;;;;;;5499728;26;20496;-77
2024/04/13 11:09:57;;;;;;;1.90;1.77;;;26.00;87.20;;;;;;5510105;26;20444;-77
2024/04/13 11:12:22;;;;;;;0.30;0.20;;;26.00;87.30;;;;;;5502011;26;20990;-77
2024/04/13 11:14:49;;;;;;;0.30;0.20;;;26.00;87.60;;;;;;5471787;26;20838;-77
2024/04/13 11:17:15;;;;;;;0.30;0.23;;;26.10;86.50;;;;;;5493595;26;20740;-77
2024/04/13 11:19:42;;;;;;;0.30;0.30;;;26.10;86.80;;;;;;5506314;26;20719;-77
2024/04/13 11:22:10;;;;;;;0.30;0.20;;;26.10;86.90;;;;;;5505327;25;20563;-77
2024/04/13 11:24:39;;;;;;;0.30;0.20;;;26.10;87.20;;;;;;5505845;26;21207;-77
2024/04/13 11:27:05;;;;;;;0.30;0.20;;;26.20;86.40;;;;;;5507164;25;20477;-77
2024/04/13 11:29:33;;;;;;;0.40;0.40;;;26.20;85.30;;;;;;5506850;26;20436;-77
2024/04/13 11:32:00;;;;;;;0.30;0.20;;;26.30;84.80;;;;;;5506174;26;20812;-77
2024/04/13 11:34:25;;;;;;;0.30;0.30;;;26.30;84.60;;;;;;5507123;26;20530;-77
2024/04/13 11:37:03;;;;;;;0.30;0.20;;;26.40;84.90;;;;;;5505814;26;20449;-77
2024/04/13 11:39:32;;;;;;;0.30;0.20;;;26.40;85.10;;;;;;5508664;26;20231;-76
2024/04/13 11:42:02;;;;;;;0.30;0.30;;;26.30;86.00;;;;;;5509056;26;20543;-77
2024/04/13 11:44:28;;;;;;;0.30;0.30;;;26.20;86.00;;;;;;5509784;26;20502;-77
2024/04/13 11:46:54;;;;;;;0.30;0.30;;;26.20;86.60;;;;;;5510484;26;20456;-77
2024/04/13 11:49:20;;;;;;;0.57;0.33;;;26.20;84.60;;;;;;5510672;26;21078;-77
2024/04/13 11:51:46;;;;;;;0.30;0.20;;;26.30;83.40;;;;;;5510175;26;20565;-77
2024/04/13 11:54:12;;;;;;;0.30;0.20;;;26.40;82.80;;;;;;5512419;26;20456;-76
2024/04/13 11:56:44;;;;;;;5.00;2.00;;;26.50;82.50;;;;;;5502705;26;20305;-77
2024/04/13 11:59:13;;;;;;;0.40;0.30;;;26.50;83.80;;;;;;5474088;26;20522;-76
2024/04/13 12:01:39;;;;;;;0.30;0.20;;;26.50;84.50;;;;;;5490250;26;20457;-75
2024/04/13 12:04:05;;;;;;;0.30;0.30;;;26.40;84.00;;;;;;5511988;25;21104;-75
2024/04/13 12:06:31;;;;;;;0.63;0.50;;;26.50;83.60;;;;;;5509267;26;20266;-78
2024/04/13 12:08:56;;;;;;;0.30;0.20;;;26.60;83.60;;;;;;5512249;25;20648;-78
2024/04/13 12:11:24;;;;;;;0.30;0.23;;;26.70;83.30;;;;;;5512269;25;20896;-78
2024/04/13 12:13:50;;;;;;;0.30;0.20;;;26.60;84.60;;;;;;5511905;25;20277;-78
2024/04/13 12:16:16;;;;;;;0.43;0.40;;;26.60;83.20;;;;;;5512388;26;21004;-78
2024/04/13 12:18:42;;;;;;;0.30;0.20;;;26.70;83.00;;;;;;5508954;26;20699;-78
2024/04/13 12:21:07;;;;;;;0.47;0.30;;;26.90;82.50;;;;;;5503406;26;20477;-78
2024/04/13 12:23:34;;;;;;;1.97;1.80;;;27.00;82.50;;;;;;5475178;26;20671;-79
2024/04/13 12:26:00;;;;;;;0.30;0.30;;;27.00;82.40;;;;;;5481685;26;20240;-81
2024/04/13 12:28:25;;;;;;;0.30;0.20;;;27.10;82.40;;;;;;5472137;26;20479;-76
2024/04/13 12:30:51;;;;;;;0.40;0.40;;;27.10;82.50;;;;;;5471149;26;20217;-78
2024/04/13 12:33:17;;;;;;;0.30;0.27;;;27.20;82.50;;;;;;5474257;26;20241;-76
2024/04/13 12:35:42;;;;;;;0.30;0.20;;;27.30;82.10;;;;;;5515204;25;20697;-78
2024/04/13 12:38:08;;;;;;;0.60;0.50;;;27.30;82.40;;;;;;5489630;25;20937;-76
2024/04/13 12:40:34;;;;;;;0.30;0.30;;;27.30;82.30;;;;;;5509711;26;20588;-75
2024/04/13 12:43:00;;;;;;;0.50;0.50;;;27.30;82.00;;;;;;5510893;25;20229;-75
2024/04/13 12:45:26;;;;;;;0.30;0.30;;;27.40;81.50;;;;;;5508384;26;20253;-77
2024/04/13 12:47:52;;;;;;;0.30;0.30;;;27.40;81.30;;;;;;5470369;26;20518;-76